createdAt,value
2018-09-03T00:02:09.969Z,36.60
2018-09-03T00:04:39.241Z,33.37
2018-09-03T00:07:07.425Z,31.07
2018-09-03T00:09:41.064Z,37.70
2018-09-03T00:12:09.916Z,35.93
2018-09-03T00:14:38.236Z,33.97
2018-09-03T00:17:07.097Z,31.03
2018-09-03T00:19:35.620Z,33.43
2018-09-03T00:22:03.753Z,31.47
2018-09-03T00:24:32.006Z,30.83
2018-09-03T00:27:00.109Z,32.80
2018-09-03T00:29:28.289Z,32.97
2018-09-03T00:32:01.916Z,32.17
2018-09-03T00:34:35.443Z,34.23
2018-09-03T00:37:09.113Z,32.00
2018-09-03T00:39:42.909Z,31.00
2018-09-03T00:42:16.669Z,32.50
2018-09-03T00:44:50.256Z,32.37
2018-09-03T00:47:18.424Z,33.60
2018-09-03T00:49:46.570Z,34.30
2018-09-03T00:52:14.729Z,31.47
2018-09-03T00:54:42.935Z,32.23
2018-09-03T00:57:11.049Z,32.10
2018-09-03T00:59:39.162Z,32.10
2018-09-03T01:02:07.325Z,32.77
2018-09-03T01:04:35.540Z,35.20
2018-09-03T01:07:03.787Z,35.37
2018-09-03T01:09:31.917Z,34.77
2018-09-03T01:12:00.040Z,36.07
2018-09-03T01:14:28.193Z,31.70
2018-09-03T01:16:56.332Z,34.10
2018-09-03T01:19:24.413Z,32.70
2018-09-03T01:21:52.529Z,33.60
2018-09-03T01:24:20.708Z,36.30
2018-09-03T01:26:48.860Z,33.40
2018-09-03T01:29:16.947Z,35.77
2018-09-03T01:31:45.167Z,36.03
2018-09-03T01:34:13.310Z,31.93
2018-09-03T01:36:41.484Z,34.90
2018-09-03T01:39:09.672Z,32.80
2018-09-03T01:41:37.791Z,33.30
2018-09-03T01:44:05.880Z,33.53
2018-09-03T01:46:33.939Z,33.67
2018-09-03T01:49:02.079Z,35.03
2018-09-03T01:51:30.175Z,32.17
2018-09-03T01:53:58.231Z,32.80
2018-09-03T01:56:26.332Z,31.57
2018-09-03T01:58:54.394Z,33.37
2018-09-03T02:01:22.597Z,34.43
2018-09-03T02:03:50.892Z,34.27
2018-09-03T02:06:19.421Z,33.77
2018-09-03T02:08:47.661Z,36.80
2018-09-03T02:11:16.002Z,35.37
2018-09-03T02:13:44.145Z,30.70
2018-09-03T02:16:12.261Z,35.23
2018-09-03T02:18:40.541Z,35.70
2018-09-03T02:21:09.012Z,34.53
2018-09-03T02:23:37.499Z,34.80
2018-09-03T02:26:05.725Z,33.13
2018-09-03T02:28:34.170Z,35.70
2018-09-03T02:31:02.431Z,32.53
2018-09-03T02:33:30.676Z,34.73
2018-09-03T02:35:58.820Z,34.60
2018-09-03T02:38:26.949Z,32.50
2018-09-03T02:40:54.984Z,35.60
2018-09-03T02:43:23.145Z,32.27
2018-09-03T02:45:51.281Z,33.87
2018-09-03T02:48:19.447Z,33.73
2018-09-03T02:50:47.636Z,33.20
2018-09-03T02:53:15.828Z,37.03
2018-09-03T02:55:43.988Z,34.30
2018-09-03T02:58:12.225Z,34.47
2018-09-03T03:00:40.324Z,34.77
2018-09-03T03:03:08.418Z,33.50
2018-09-03T03:05:36.534Z,34.10
2018-09-03T03:08:05.495Z,32.80
2018-09-03T03:10:33.720Z,34.97
2018-09-03T03:13:01.828Z,33.10
2018-09-03T03:15:29.920Z,32.60
2018-09-03T03:17:58.093Z,34.50
2018-09-03T03:20:26.180Z,37.83
2018-09-03T03:22:54.313Z,33.40
2018-09-03T03:25:22.447Z,34.13
2018-09-03T03:27:50.577Z,37.27
2018-09-03T03:30:18.812Z,35.27
2018-09-03T03:32:47.058Z,37.60
2018-09-03T03:35:15.261Z,37.03
2018-09-03T03:37:47.855Z,35.03
2018-09-03T03:40:16.846Z,38.80
2018-09-03T03:42:45.035Z,40.20
2018-09-03T03:45:13.205Z,38.13
2018-09-03T03:47:41.801Z,39.90
2018-09-03T03:50:10.417Z,35.03
2018-09-03T03:52:38.632Z,38.30
2018-09-03T03:55:07.419Z,35.20
2018-09-03T03:57:35.840Z,38.47
2018-09-03T04:00:03.950Z,37.63
2018-09-03T04:02:32.118Z,38.67
2018-09-03T04:05:00.311Z,38.37
2018-09-03T04:07:28.367Z,37.97
2018-09-03T04:09:56.783Z,38.77
2018-09-03T04:12:25.001Z,37.50
2018-09-03T04:14:53.185Z,39.70
2018-09-03T04:17:21.322Z,38.47
2018-09-03T04:19:53.948Z,41.30
2018-09-03T04:22:22.085Z,40.93
2018-09-03T04:24:50.330Z,38.30
2018-09-03T04:27:18.438Z,40.00
2018-09-03T04:29:46.560Z,40.13
2018-09-03T04:32:14.616Z,41.23
2018-09-03T04:34:42.789Z,39.30
2018-09-03T04:37:10.883Z,41.30
2018-09-03T04:39:38.974Z,40.70
2018-09-03T04:42:07.198Z,40.87
2018-09-03T04:44:35.338Z,39.10
2018-09-03T04:47:03.533Z,38.77
2018-09-03T04:49:31.738Z,41.07
2018-09-03T04:51:59.973Z,39.87
2018-09-03T04:54:28.244Z,37.90
2018-09-03T04:56:56.429Z,38.50
2018-09-03T04:59:24.492Z,40.80
2018-09-03T05:01:52.589Z,38.53
2018-09-03T05:04:20.814Z,40.13
2018-09-03T05:06:48.859Z,39.70
2018-09-03T05:09:16.918Z,41.47
2018-09-03T05:11:45.076Z,40.73
2018-09-03T05:14:13.119Z,36.13
2018-09-03T05:16:41.243Z,42.87
2018-09-03T05:19:09.290Z,42.50
2018-09-03T05:21:37.408Z,41.67
2018-09-03T05:24:05.618Z,42.80
2018-09-03T05:26:33.711Z,42.80
2018-09-03T05:29:01.793Z,117.47
2018-09-03T05:31:29.936Z,55.93
2018-09-03T05:33:58.075Z,41.13
2018-09-03T05:36:26.190Z,37.83
2018-09-03T05:38:54.281Z,38.47
2018-09-03T05:41:22.428Z,45.30
2018-09-03T05:43:50.591Z,42.47
2018-09-03T05:46:18.675Z,41.13
2018-09-03T05:48:46.801Z,44.50
2018-09-03T05:51:14.945Z,43.57
2018-09-03T05:53:43.046Z,44.20
2018-09-03T05:56:11.141Z,43.23
2018-09-03T05:58:39.204Z,43.23
2018-09-03T06:01:07.271Z,44.23
2018-09-03T06:03:35.352Z,47.10
2018-09-03T06:06:03.525Z,45.30
2018-09-03T06:08:31.738Z,44.27
2018-09-03T06:11:00.248Z,40.60
2018-09-03T06:13:28.384Z,41.63
2018-09-03T06:15:56.826Z,42.60
2018-09-03T06:18:25.120Z,45.10
2018-09-03T06:20:53.224Z,82.30
2018-09-03T06:23:21.389Z,45.60
2018-09-03T06:25:49.526Z,41.73
2018-09-03T06:28:17.583Z,42.83
2018-09-03T06:30:45.795Z,42.50
2018-09-03T06:33:13.886Z,38.03
2018-09-03T06:35:41.985Z,38.20
2018-09-03T06:38:10.113Z,44.20
2018-09-03T06:40:38.291Z,41.13
2018-09-03T06:43:06.364Z,37.00
2018-09-03T06:45:34.793Z,39.10
2018-09-03T06:48:02.934Z,41.70
2018-09-03T06:50:31.145Z,39.37
2018-09-03T06:52:59.290Z,39.30
2018-09-03T06:55:27.397Z,38.03
2018-09-03T06:57:55.544Z,36.40
2018-09-03T07:00:23.652Z,37.47
2018-09-03T07:02:51.773Z,35.67
2018-09-03T07:05:19.847Z,37.37
2018-09-03T07:07:48.011Z,35.80
2018-09-03T07:10:16.104Z,36.03
2018-09-03T07:12:44.236Z,38.07
2018-09-03T07:15:12.341Z,34.50
2018-09-03T07:17:40.992Z,36.23
2018-09-03T07:20:09.372Z,37.30
2018-09-03T07:22:37.446Z,33.47
2018-09-03T07:25:05.553Z,33.40
2018-09-03T07:27:33.685Z,34.00
2018-09-03T07:30:01.748Z,32.80
2018-09-03T07:32:29.832Z,34.63
2018-09-03T07:34:57.943Z,35.97
2018-09-03T07:37:26.038Z,35.23
2018-09-03T07:39:54.218Z,33.40
2018-09-03T07:42:22.365Z,34.77
2018-09-03T07:44:50.552Z,35.63
2018-09-03T07:47:18.607Z,31.30
2018-09-03T07:50:50.254Z,35.97
2018-09-03T07:53:18.324Z,35.30
2018-09-03T07:55:46.416Z,34.63
2018-09-03T07:58:14.556Z,34.90
2018-09-03T08:00:42.628Z,33.03
2018-09-03T08:03:10.813Z,42.93
2018-09-03T08:05:38.873Z,34.47
2018-09-03T08:08:07.254Z,37.10
2018-09-03T08:10:35.573Z,37.10
2018-09-03T08:13:03.687Z,35.70
2018-09-03T08:15:31.950Z,37.27
2018-09-03T08:18:00.082Z,37.37
2018-09-03T08:20:28.174Z,36.93
2018-09-03T08:22:56.287Z,34.70
2018-09-03T08:25:24.485Z,34.60
2018-09-03T08:27:52.535Z,37.07
2018-09-03T08:30:20.789Z,37.67
2018-09-03T08:32:48.880Z,33.07
2018-09-03T08:35:16.925Z,37.40
2018-09-03T08:37:45.061Z,38.27
2018-09-03T08:40:13.177Z,36.37
2018-09-03T08:42:41.294Z,36.40
2018-09-03T08:45:09.372Z,36.20
2018-09-03T08:47:37.440Z,39.37
2018-09-03T08:50:05.484Z,37.83
2018-09-03T08:52:33.571Z,38.27
2018-09-03T08:55:02.467Z,38.10
2018-09-03T08:57:30.499Z,38.47
2018-09-03T08:59:58.605Z,37.20
2018-09-03T09:02:26.718Z,37.80
2018-09-03T09:04:54.796Z,36.23
2018-09-03T09:07:23.052Z,36.90
2018-09-03T09:09:51.164Z,61.60
2018-09-03T09:12:19.245Z,43.03
2018-09-03T09:14:47.355Z,38.40
2018-09-03T09:17:15.448Z,35.20
2018-09-03T09:19:43.579Z,35.83
2018-09-03T09:22:11.647Z,36.37
2018-09-03T09:24:39.805Z,37.90
2018-09-03T09:27:07.866Z,35.53
2018-09-03T09:29:36.000Z,36.73
2018-09-03T09:32:04.109Z,35.67
2018-09-03T09:34:32.163Z,36.20
2018-09-03T09:37:00.232Z,34.03
2018-09-03T09:39:28.358Z,33.90
2018-09-03T09:41:56.519Z,33.00
2018-09-03T09:44:24.601Z,32.43
2018-09-03T09:46:52.672Z,34.57
2018-09-03T09:49:20.988Z,33.90
2018-09-03T09:51:49.124Z,31.60
2018-09-03T09:54:18.250Z,32.53
2018-09-03T09:56:46.356Z,33.27
2018-09-03T09:59:14.460Z,33.00
2018-09-03T10:01:42.613Z,31.30
2018-09-03T10:04:10.694Z,32.43
2018-09-03T10:06:38.812Z,32.03
2018-09-03T10:09:07.749Z,32.50
2018-09-03T10:11:35.835Z,33.50
2018-09-03T10:14:03.982Z,31.47
2018-09-03T10:16:32.066Z,32.00
2018-09-03T10:19:00.208Z,32.50
2018-09-03T10:21:28.320Z,32.20
2018-09-03T10:23:56.401Z,33.47
2018-09-03T10:26:24.496Z,32.23
2018-09-03T10:28:52.638Z,30.10
2018-09-03T10:31:20.790Z,32.10
2018-09-03T10:33:48.958Z,32.53
2018-09-03T10:36:17.092Z,31.93
2018-09-03T10:38:45.205Z,32.47
2018-09-03T10:41:13.328Z,33.83
2018-09-03T10:43:41.448Z,32.07
2018-09-03T10:50:57.662Z,34.83
2018-09-03T10:53:25.708Z,34.27
2018-09-03T10:55:53.859Z,34.03
2018-09-03T10:58:22.032Z,33.80
2018-09-03T11:00:50.078Z,34.63
2018-09-03T11:03:18.142Z,33.67
2018-09-03T11:05:46.248Z,32.23
2018-09-03T11:08:14.326Z,33.50
2018-09-03T11:10:42.377Z,33.87
2018-09-03T11:13:10.519Z,36.70
2018-09-03T11:15:38.487Z,33.37
2018-09-03T11:18:06.594Z,33.30
2018-09-03T11:20:34.723Z,32.80
2018-09-03T11:23:02.840Z,33.57
2018-09-03T11:25:31.980Z,32.73
2018-09-03T11:28:00.458Z,30.70
2018-09-03T11:30:28.893Z,32.60
2018-09-03T11:32:59.182Z,33.77
2018-09-03T11:35:27.279Z,31.10
2018-09-03T11:37:55.442Z,32.87
2018-09-03T11:40:24.231Z,34.40
2018-09-03T11:42:52.296Z,32.50
2018-09-03T11:45:21.521Z,33.17
2018-09-03T11:47:49.780Z,31.87
2018-09-03T11:50:18.639Z,31.67
2018-09-03T11:52:46.757Z,33.57
2018-09-03T11:55:15.758Z,32.13
2018-09-03T11:57:44.011Z,31.17
2018-09-03T12:00:15.656Z,33.07
2018-09-03T12:02:43.793Z,32.77
2018-09-03T12:05:11.931Z,31.83
2018-09-03T12:07:39.970Z,31.57
2018-09-03T12:10:08.123Z,32.10
2018-09-03T12:12:37.052Z,31.57
2018-09-03T12:15:11.777Z,32.60
2018-09-03T12:17:39.851Z,31.50
2018-09-03T12:20:07.937Z,30.17
2018-09-03T12:22:36.103Z,34.87
2018-09-03T12:25:04.256Z,32.00
2018-09-03T12:27:32.718Z,30.67
2018-09-03T12:31:04.554Z,30.27
2018-09-03T12:33:33.552Z,32.03
2018-09-03T12:36:01.847Z,30.97
2018-09-03T12:38:30.083Z,31.50
2018-09-03T12:40:58.331Z,30.70
2018-09-03T12:43:26.728Z,29.97
2018-09-03T12:46:01.250Z,29.00
2018-09-03T12:48:30.225Z,31.57
2018-09-03T12:50:59.078Z,29.93
2018-09-03T12:53:27.267Z,29.57
2018-09-03T12:55:55.622Z,29.20
2018-09-03T12:58:23.737Z,29.73
2018-09-03T13:00:51.967Z,28.30
2018-09-03T13:03:19.984Z,29.20
2018-09-03T13:05:48.125Z,29.73
2018-09-03T13:08:16.263Z,29.80
2018-09-03T13:10:44.414Z,29.17
2018-09-03T13:13:12.559Z,30.30
2018-09-03T13:15:40.684Z,29.67
2018-09-03T13:18:08.805Z,33.03
2018-09-03T13:20:36.900Z,31.60
2018-09-03T13:23:05.093Z,30.80
2018-09-03T13:25:33.380Z,31.73
2018-09-03T13:28:01.436Z,31.47
2018-09-03T13:30:29.528Z,30.73
2018-09-03T13:32:57.639Z,31.20
2018-09-03T13:35:26.027Z,32.73
2018-09-03T13:37:54.087Z,64.80
2018-09-03T13:40:22.169Z,33.80
2018-09-03T13:42:50.284Z,34.30
2018-09-03T13:45:18.433Z,33.43
2018-09-03T13:47:46.586Z,32.20
2018-09-03T13:50:14.771Z,34.37
2018-09-03T13:52:42.984Z,32.70
2018-09-03T13:55:11.270Z,32.40
2018-09-03T13:57:39.256Z,34.40
2018-09-03T14:00:08.658Z,31.90
2018-09-03T14:02:36.749Z,32.50
2018-09-03T14:05:04.797Z,33.20
2018-09-03T14:07:32.982Z,32.67
2018-09-03T14:10:01.148Z,30.33
2018-09-03T14:12:29.311Z,32.23
2018-09-03T14:14:57.450Z,32.13
2018-09-03T14:17:26.868Z,33.13
2018-09-03T14:19:55.050Z,30.87
2018-09-03T14:22:23.224Z,31.63
2018-09-03T14:24:51.318Z,32.10
2018-09-03T14:27:19.555Z,31.63
2018-09-03T14:29:47.689Z,31.27
2018-09-03T14:32:15.994Z,31.87
2018-09-03T14:34:44.505Z,31.80
2018-09-03T14:37:12.774Z,31.33
2018-09-03T14:39:40.972Z,32.80
2018-09-03T14:42:09.121Z,32.23
2018-09-03T14:44:37.405Z,31.73
2018-09-03T14:47:05.685Z,33.70
2018-09-03T14:49:33.862Z,32.20
2018-09-03T14:52:02.243Z,31.17
2018-09-03T14:54:30.417Z,29.40
2018-09-03T14:56:58.537Z,31.37
2018-09-03T14:59:26.720Z,31.43
2018-09-03T15:01:54.897Z,31.30
2018-09-03T15:04:23.119Z,30.30
2018-09-03T15:06:51.288Z,31.40
2018-09-03T15:09:19.476Z,29.27
2018-09-03T15:11:47.847Z,30.97
2018-09-03T15:14:16.543Z,30.87
2018-09-03T15:16:44.806Z,34.57
2018-09-03T15:19:13.047Z,30.40
2018-09-03T15:21:41.153Z,28.70
2018-09-03T15:24:09.300Z,30.77
2018-09-03T15:26:37.481Z,28.73
2018-09-03T15:29:05.581Z,30.80
2018-09-03T15:31:33.863Z,31.07
2018-09-03T15:34:02.246Z,30.53
2018-09-03T15:36:30.525Z,29.87
2018-09-03T15:38:58.846Z,30.97
2018-09-03T15:41:27.089Z,30.00
2018-09-03T15:43:55.234Z,29.63
2018-09-03T15:46:23.507Z,30.77
2018-09-03T15:48:51.844Z,30.43
2018-09-03T15:51:20.067Z,29.03
2018-09-03T15:53:48.920Z,30.43
2018-09-03T15:56:17.089Z,31.10
2018-09-03T15:58:45.518Z,29.10
2018-09-03T16:01:13.721Z,30.50
2018-09-03T16:03:42.048Z,29.90
2018-09-03T16:06:10.099Z,30.80
2018-09-03T16:08:38.297Z,32.00
2018-09-03T16:11:06.592Z,30.47
2018-09-03T16:13:34.784Z,30.80
2018-09-03T16:16:02.976Z,29.83
2018-09-03T16:18:31.216Z,28.60
2018-09-03T16:20:59.525Z,30.00
2018-09-03T16:23:27.648Z,29.50
2018-09-03T16:25:55.893Z,31.27
2018-09-03T16:28:24.126Z,29.30
2018-09-03T16:30:52.582Z,29.73
2018-09-03T16:33:20.705Z,30.17
2018-09-03T16:35:49.003Z,30.63
2018-09-03T16:38:17.331Z,30.00
2018-09-03T16:40:45.597Z,32.50
2018-09-03T16:43:14.190Z,29.80
2018-09-03T16:45:43.248Z,29.07
2018-09-03T16:48:11.770Z,38.67
2018-09-03T16:50:40.034Z,29.30
2018-09-03T16:53:08.460Z,30.43
2018-09-03T16:55:36.780Z,29.83
2018-09-03T16:58:04.985Z,30.00
2018-09-03T17:00:33.176Z,30.30
2018-09-03T17:03:01.493Z,31.07
2018-09-03T17:05:29.601Z,31.60
2018-09-03T17:07:57.813Z,29.90
2018-09-03T17:10:26.045Z,45.27
2018-09-03T17:12:54.316Z,30.43
2018-09-03T17:15:22.502Z,30.93
2018-09-03T17:17:50.723Z,31.87
2018-09-03T17:20:19.885Z,29.50
2018-09-03T17:22:48.183Z,31.40
2018-09-03T17:25:17.365Z,31.57
2018-09-03T17:27:45.614Z,28.40
2018-09-03T17:30:13.943Z,30.90
2018-09-03T17:32:42.041Z,31.13
2018-09-03T17:35:10.252Z,29.40
2018-09-03T17:37:38.342Z,30.60
2018-09-03T17:40:06.642Z,29.47
2018-09-03T17:42:34.787Z,31.97
2018-09-03T17:45:02.951Z,29.53
2018-09-03T17:47:31.013Z,30.73
2018-09-03T17:49:59.119Z,29.73
2018-09-03T17:52:27.284Z,31.10
2018-09-03T17:54:55.447Z,29.43
2018-09-03T17:57:23.532Z,30.80
2018-09-03T17:59:51.664Z,30.10
2018-09-03T18:02:19.871Z,29.90
2018-09-03T18:04:47.965Z,31.70
2018-09-03T18:07:16.065Z,29.07
2018-09-03T18:09:44.160Z,30.20
2018-09-03T18:12:12.264Z,30.97
2018-09-03T18:14:40.392Z,30.13
2018-09-03T18:17:08.723Z,41.87
2018-09-03T18:19:36.878Z,34.50
2018-09-03T18:22:04.981Z,32.37
2018-09-03T18:24:33.179Z,30.70
2018-09-03T18:27:01.366Z,30.10
2018-09-03T18:29:29.568Z,32.33
2018-09-03T18:31:57.674Z,30.27
2018-09-03T18:34:25.877Z,31.37
2018-09-03T18:36:54.090Z,31.33
2018-09-03T18:39:22.326Z,32.43
2018-09-03T18:41:50.497Z,30.97
2018-09-03T18:44:18.641Z,30.40
2018-09-03T18:46:46.812Z,29.17
2018-09-03T18:49:15.002Z,29.40
2018-09-03T18:51:43.315Z,32.20
2018-09-03T18:54:11.509Z,30.33
2018-09-03T18:56:39.729Z,29.93
2018-09-03T18:59:07.999Z,32.50
2018-09-03T19:01:36.273Z,29.33
2018-09-03T19:04:04.616Z,29.80
2018-09-03T19:06:32.814Z,28.87
2018-09-03T19:09:01.102Z,28.87
2018-09-03T19:11:29.368Z,30.07
2018-09-03T19:13:57.631Z,31.93
2018-09-03T19:16:25.861Z,31.43
2018-09-03T19:18:54.268Z,29.57
2018-09-03T19:21:22.441Z,29.13
2018-09-03T19:23:50.713Z,30.00
2018-09-03T19:26:19.058Z,28.97
2018-09-03T19:28:47.193Z,32.00
2018-09-03T19:31:15.293Z,34.90
2018-09-03T19:33:43.465Z,29.60
2018-09-03T19:36:11.653Z,30.60
2018-09-03T19:38:39.890Z,28.57
2018-09-03T19:41:08.113Z,29.80
2018-09-03T19:43:36.242Z,28.93
2018-09-03T19:46:04.311Z,29.20
2018-09-03T19:48:32.478Z,28.83
2018-09-03T19:51:00.627Z,29.40
2018-09-03T19:53:28.820Z,29.10
2018-09-03T19:55:57.020Z,28.47
2018-09-03T19:58:25.589Z,28.60
2018-09-03T20:00:53.769Z,28.93
2018-09-03T20:03:21.881Z,29.13
2018-09-03T20:05:50.056Z,33.40
2018-09-03T20:08:18.289Z,36.13
2018-09-03T20:10:46.367Z,36.67
2018-09-03T20:13:14.550Z,29.93
2018-09-03T20:15:42.837Z,28.80
2018-09-03T20:18:11.124Z,28.47
2018-09-03T20:20:39.313Z,27.20
2018-09-03T20:23:07.923Z,28.70
2018-09-03T20:25:36.133Z,30.10
2018-09-03T20:28:04.477Z,29.47
2018-09-03T20:30:32.672Z,28.20
2018-09-03T20:33:00.869Z,26.93
2018-09-03T20:35:29.049Z,28.37
2018-09-03T20:37:57.256Z,29.53
2018-09-03T20:40:25.468Z,30.17
2018-09-03T20:42:53.567Z,27.03
2018-09-03T20:45:21.652Z,28.53
2018-09-03T20:47:49.937Z,28.77
2018-09-03T20:50:18.084Z,28.23
2018-09-03T20:52:46.275Z,28.97
2018-09-03T20:55:14.451Z,28.80
2018-09-03T20:57:43.301Z,29.30
2018-09-03T21:00:11.444Z,26.60
2018-09-03T21:02:39.547Z,27.07
2018-09-03T21:05:07.943Z,29.03
2018-09-03T21:07:36.049Z,28.83
2018-09-03T21:10:04.308Z,28.43
2018-09-03T21:12:32.999Z,28.70
2018-09-03T21:15:01.233Z,28.30
2018-09-03T21:17:29.594Z,28.37
2018-09-03T21:19:57.754Z,27.43
2018-09-03T21:22:25.892Z,26.50
2018-09-03T21:24:54.192Z,28.83
2018-09-03T21:27:22.392Z,28.50
2018-09-03T21:29:50.679Z,25.47
2018-09-03T21:32:18.875Z,26.10
2018-09-03T21:34:47.012Z,25.37
2018-09-03T21:37:15.196Z,25.80
2018-09-03T21:39:43.639Z,28.23
2018-09-03T21:42:11.801Z,28.23
2018-09-03T21:45:43.459Z,26.67
2018-09-03T21:48:11.701Z,27.77
2018-09-03T21:50:39.828Z,25.03
2018-09-03T21:53:07.997Z,27.07
2018-09-03T21:55:36.270Z,25.60
2018-09-03T21:58:04.469Z,26.00
2018-09-03T22:00:32.707Z,26.73
2018-09-03T22:03:00.810Z,24.53
2018-09-03T22:05:28.868Z,23.80
2018-09-03T22:07:56.928Z,25.10
2018-09-03T22:10:24.995Z,24.57
2018-09-03T22:12:53.061Z,25.90
2018-09-03T22:15:21.200Z,27.03
2018-09-03T22:17:49.314Z,25.60
2018-09-03T22:20:17.409Z,24.47
2018-09-03T22:22:45.435Z,25.20
2018-09-03T22:25:13.500Z,27.37
2018-09-03T22:27:41.620Z,25.90
2018-09-03T22:30:09.676Z,26.80
2018-09-03T22:32:37.740Z,24.83
2018-09-03T22:35:05.867Z,24.30
2018-09-03T22:37:33.957Z,26.50
2018-09-03T22:40:02.070Z,26.33
2018-09-03T22:42:30.244Z,25.30
2018-09-03T22:44:59.060Z,26.53
2018-09-03T22:47:27.151Z,25.00
2018-09-03T22:49:55.348Z,24.77
2018-09-03T22:52:23.484Z,24.67
2018-09-03T22:54:52.678Z,24.40
2018-09-03T22:57:20.749Z,24.30
2018-09-03T22:59:48.797Z,25.47
2018-09-03T23:02:16.868Z,25.47
2018-09-03T23:04:44.957Z,26.27
2018-09-03T23:07:13.004Z,24.50
2018-09-03T23:09:41.081Z,25.47
2018-09-03T23:12:09.189Z,25.20
2018-09-03T23:14:37.294Z,25.43
2018-09-03T23:17:05.364Z,27.13
2018-09-03T23:19:33.445Z,25.80
2018-09-03T23:22:01.557Z,25.37
2018-09-03T23:24:29.640Z,24.10
2018-09-03T23:26:57.770Z,26.60
2018-09-03T23:29:25.868Z,25.77
2018-09-03T23:31:53.928Z,25.40
2018-09-03T23:34:21.996Z,25.23
2018-09-03T23:36:50.064Z,26.57
2018-09-03T23:39:18.208Z,24.20
2018-09-03T23:41:46.323Z,23.50
2018-09-03T23:44:14.461Z,24.77
2018-09-03T23:46:42.933Z,24.40
2018-09-03T23:49:11.075Z,26.30
2018-09-03T23:51:39.228Z,25.17
2018-09-03T23:54:07.305Z,25.20
2018-09-03T23:56:35.347Z,23.50
2018-09-03T23:59:03.490Z,24.33
